This is the latest recevied weather packets stored in our database for station/object N5DGC. If no packets are shown the sender has not sent any weather packets the latest 1 day(s).
| Time | Temp. | Humidity | Pressure | Rain* | Wind** | Luminosity | Snow |
|---|---|---|---|---|---|---|---|
| 1778034416 | 11.11° C | 61% | 1230.8 hPa | 0 mm | - | 0 W/m² | - |
| 1778033508 | 12.22° C | 55% | 1230.4 hPa | 0 mm | - | 0 W/m² | - |
| 1778033205 | 12.78° C | 53% | 1230 hPa | 0 mm | - | 1 W/m² | - |
| 1778032903 | 13.33° C | 52% | 1229.8 hPa | 0 mm | - | 1 W/m² | - |
| 1778032600 | 14.44° C | 48% | 1229.9 hPa | 0 mm | - | 3 W/m² | - |
| 1778032297 | 15° C | 48% | 1229.7 hPa | 0 mm | - | 4 W/m² | - |
| 1778031995 | 15° C | 47% | 1229.3 hPa | 0 mm | - | 6 W/m² | - |
| 1778031690 | 15.56° C | 47% | 1229.1 hPa | 0 mm | - | 8 W/m² | - |
| 1778031389 | 15.56° C | 46% | 1228.9 hPa | 0 mm | - | 9 W/m² | - |
| 1778031085 | 15.56° C | 46% | 1229 hPa | 0 mm | - | 11 W/m² | - |
| 1778030478 | 16.11° C | 44% | 1229.1 hPa | 0 mm | - | 13 W/m² | - |
| 1778030176 | 16.11° C | 43% | 1229 hPa | 0 mm | - | 13 W/m² | - |
| 1778029872 | 16.67° C | 43% | 1229 hPa | 0 mm | - | 13 W/m² | - |
| 1778029268 | 17.22° C | 41% | 1229.1 hPa | 0 mm | - | 24 W/m² | - |
| 1778028965 | 17.78° C | 39% | 1228.7 hPa | 0 mm | - | 31 W/m² | - |
| 1778028661 | 18.89° C | 38% | 1228.4 hPa | 0 mm | - | 63 W/m² | - |
| 1778028358 | 18.33° C | 39% | 1228.6 hPa | 0 mm | - | 99 W/m² | - |
| 1778028055 | 17.78° C | 42% | 1228.7 hPa | 0 mm | - | 139 W/m² | - |
| 1778027751 | 17.78° C | 47% | 1228.9 hPa | 0 mm | - | 149 W/m² | - |
| 1778027143 | 18.89° C | 36% | 1229.3 hPa | 0 mm | - | 89 W/m² | - |
| 1778025931 | 20° C | 34% | 1228.9 hPa | 0 mm | - | 206 W/m² | - |
| 1778024114 | 18.89° C | 37% | 1228.9 hPa | 0 mm | - | 369 W/m² | - |
| 1778023509 | 18.89° C | 39% | 1229.2 hPa | 0 mm | - | 414 W/m² | - |
| 1778021388 | 17.78° C | 43% | 1229.1 hPa | 0 mm | - | 559 W/m² | - |
| 1778021085 | 18.89° C | 40% | 1229.1 hPa | 0 mm | - | 577 W/m² | - |
* Rain latest hour (hover to see other rain measurements)
** Current wind speed in m/s (hover to see current wind gust speed)